Aplicació Alertes

Dades de l'estació automàtica Bonaigua (2.266 m)

?
?
Resum diari 22:30 TU
Dades diàries de l'estació meteorològica
Temperatura mitjana -9.9 °C
Temperatura màxima -7.5 °C 22:58 TU
Temperatura mínima -12.7 °C 5:07 TU
Humitat relativa mitjana 92%
Precipitació acumulada 3.0 mm
Gruix de neu màxim 67 cm
Ratxa màxima del vent (6 m) 37.4 km/h - 269º 0:47 TU
Irradiació solar global 2.2 MJ/m2

El tram horari està expressat en Temps Universal (TU). Cal sumar una hora en horari d'hivern i dues en horari d'estiu per passar a l'hora oficial.

Bonaigua (2.266 m)

Metadades estació meteorol´gica
Municipi Alt Àneu
Comarca Pallars Sobirà
Altitud 2266 m
Data alta 06.11.1997
Estat actual Operativa
Dades de període
Període
TU
TM
°C
TX
°C
TN
°C
HRM
%
PPT
mm
GN
cm
VVM (6 m)
km/h
DVM (6 m)
graus
VVX (6 m)
km/h
RS
W/m2
00:00 - 00:30 -10.8 -10.8 -11.0 91 0.0 65 20.2 247 31.0 0
00:30 - 01:00 -11.1 -11.0 -11.2 91 0.0 67 22.7 248 37.4 0
01:00 - 01:30 -11.3 -11.2 -11.4 91 0.0 66 24.5 249 34.9 0
01:30 - 02:00 -11.5 -11.4 -11.6 91 0.0 65 19.8 251 33.1 0
02:00 - 02:30 -11.7 -11.6 -11.8 91 0.0 65 19.4 261 27.4 0
02:30 - 03:00 -12.0 -11.8 -12.2 90 0.0 64 20.9 257 34.6 0
03:00 - 03:30 -12.3 -12.2 -12.5 90 0.0 62 19.4 257 32.8 0
03:30 - 04:00 -12.5 -12.5 -12.6 90 0.0 63 15.5 256 31.0 0
04:00 - 04:30 -12.6 -12.6 -12.7 90 0.0 64 13.0 260 24.1 0
04:30 - 05:00 -12.6 -12.6 -12.7 90 0.0 63 11.9 262 17.3 0
05:00 - 05:30 -12.6 -12.4 -12.7 90 0.0 63 12.2 260 20.5 0
05:30 - 06:00 -12.2 -12.0 -12.4 90 0.0 63 12.6 250 20.5 0
06:00 - 06:30 -12.1 -12.0 -12.1 90 0.0 64 10.1 261 23.0 0
06:30 - 07:00 -11.9 -11.8 -12.0 90 0.0 63 10.8 248 16.6 0
07:00 - 07:30 -12.0 -12.0 -12.1 90 0.0 64 10.1 256 16.9 2
07:30 - 08:00 -11.8 -11.7 -12.0 90 0.0 64 11.9 255 19.1 13
08:00 - 08:30 -11.3 -11.0 -11.7 91 0.0 64 15.1 250 24.1 32
08:30 - 09:00 -10.8 -10.7 -11.0 91 0.0 63 13.7 255 24.5 53
09:00 - 09:30 -10.4 -10.3 -10.7 91 0.0 63 14.0 267 20.9 71
09:30 - 10:00 -10.2 -10.2 -10.3 92 0.0 62 16.9 260 25.6 79
10:00 - 10:30 -9.9 -9.7 -10.2 92 0.0 62 15.1 251 28.1 93
10:30 - 11:00 -9.5 -9.3 -9.7 92 0.0 62 17.6 248 31.3 104
11:00 - 11:30 -9.1 -9.0 -9.3 93 0.0 61 18.0 257 29.2 107
11:30 - 12:00 -8.8 -8.7 -9.0 93 0.0 62 15.5 263 27.0 112
12:00 - 12:30 -8.6 -8.4 -8.7 93 0.1 62 16.2 247 27.4 122
12:30 - 13:00 -8.5 -8.2 -8.8 93 0.1 62 14.4 254 23.4 110
13:00 - 13:30 -8.2 -8.1 -8.2 93 0.2 62 13.7 260 22.7 98
13:30 - 14:00 -7.9 -7.9 -8.0 94 0.0 64 15.8 256 25.2 89
14:00 - 14:30 -7.9 -7.9 -8.0 94 0.0 63 16.6 252 32.4 64
14:30 - 15:00 -8.1 -7.9 -8.2 94 0.0 63 19.8 257 33.8 41
15:00 - 15:30 -8.2 -8.1 -8.3 94 0.0 63 18.7 256 28.8 23
15:30 - 16:00 -8.4 -8.3 -8.5 93 0.0 62 18.7 259 27.7 9
16:00 - 16:30 -8.5 -8.5 -8.5 93 0.0 62 22.0 258 33.8 3
16:30 - 17:00 -8.6 -8.5 -8.6 93 0.1 62 15.8 261 26.6 0
17:00 - 17:30 -8.7 -8.6 -8.7 93 0.2 62 15.1 255 22.0 0
17:30 - 18:00 -8.6 -8.6 -8.7 93 0.1 64 16.9 256 24.5 0
18:00 - 18:30 -8.5 -8.5 -8.6 93 0.0 62 17.6 257 26.6 0
18:30 - 19:00 -8.6 -8.5 -8.6 93 0.1 63 16.9 263 25.9 0
19:00 - 19:30 -8.5 -8.4 -8.6 93 0.0 62 14.8 258 26.6 0
19:30 - 20:00 -8.4 -8.3 -8.4 94 0.1 63 12.6 251 19.1 0
20:00 - 20:30 -8.3 -8.2 -8.3 94 0.2 63 10.4 251 15.8 0
20:30 - 21:00 -8.2 -8.2 -8.2 94 0.2 63 9.0 241 13.7 0
21:00 - 21:30 -8.1 -8.0 -8.2 94 0.4 64 9.4 228 13.3 0
21:30 - 22:00 -7.9 -7.8 -8.0 94 0.4 63 9.4 235 13.7 0
22:00 - 22:30 -7.8 -7.7 -7.8 94 0.5 64 9.4 239 14.8 0
22:30 - 23:00 -7.6 -7.5 -7.7 94 0.3 66 10.8 245 16.2 0

Les dades en taronja només han passat un control de qualitat automàtic. Resta pendent la seva validació definitiva.